createdAt,value
2018-08-25T07:56:17.561Z,15.20
2018-08-25T07:58:46.128Z,15.20
2018-08-25T08:01:14.677Z,15.50
2018-08-25T08:03:43.998Z,15.70
2018-08-25T08:06:12.505Z,15.90
2018-08-25T08:08:40.949Z,15.90
2018-08-25T08:11:09.493Z,16.20
2018-08-25T08:13:38.073Z,16.40
2018-08-25T08:16:07.193Z,16.20
2018-08-25T08:18:35.943Z,16.10
2018-08-25T08:21:04.509Z,16.10
2018-08-25T08:23:33.264Z,16.00
2018-08-25T08:26:01.782Z,16.00
2018-08-25T08:28:30.272Z,15.70
2018-08-25T08:30:58.808Z,15.40
2018-08-25T08:33:27.812Z,15.30
2018-08-25T08:35:56.941Z,15.40
2018-08-25T08:38:25.496Z,15.60
2018-08-25T08:40:54.039Z,15.60
2018-08-25T08:43:23.308Z,16.00
2018-08-25T08:45:51.734Z,16.20
2018-08-25T08:48:20.164Z,16.50
2018-08-25T08:50:48.572Z,16.80
2018-08-25T08:53:16.980Z,17.10
2018-08-25T08:55:45.385Z,16.70
2018-08-25T08:58:13.945Z,16.70
2018-08-25T09:00:42.673Z,16.80
2018-08-25T09:03:11.526Z,17.60
2018-08-25T09:05:40.034Z,17.60
2018-08-25T09:08:08.710Z,17.80
2018-08-25T09:10:37.311Z,18.10
2018-08-25T09:13:06.730Z,18.40
2018-08-25T09:15:35.224Z,19.40
2018-08-25T09:18:03.695Z,20.30
2018-08-25T09:20:32.369Z,19.80
2018-08-25T09:23:00.927Z,19.00
2018-08-25T09:25:29.341Z,18.50
2018-08-25T09:27:58.085Z,18.50
2018-08-25T09:30:26.603Z,18.50
2018-08-25T09:32:55.974Z,18.70
2018-08-25T09:35:24.624Z,18.50
2018-08-25T09:37:53.562Z,18.30
2018-08-25T09:40:22.025Z,18.00
2018-08-25T09:42:50.448Z,17.60
2018-08-25T09:45:19.015Z,17.30
2018-08-25T09:47:48.195Z,17.20
2018-08-25T09:50:17.473Z,17.30
2018-08-25T09:52:46.667Z,17.40
2018-08-25T09:55:15.293Z,17.50
2018-08-25T09:57:44.091Z,17.80
2018-08-25T10:00:12.552Z,18.40
2018-08-25T10:02:41.540Z,18.90
2018-08-25T10:05:10.080Z,19.90
2018-08-25T10:07:39.404Z,20.30
2018-08-25T10:10:08.256Z,21.50
2018-08-25T10:12:37.421Z,22.40
2018-08-25T10:15:06.778Z,22.90
2018-08-25T10:17:35.401Z,23.60
2018-08-25T10:20:03.873Z,24.60
2018-08-25T10:22:32.347Z,24.00
2018-08-25T10:25:00.889Z,23.90
2018-08-25T10:27:29.643Z,24.40
2018-08-25T10:29:58.332Z,25.00
2018-08-25T10:32:27.436Z,25.30
2018-08-25T10:34:56.565Z,24.80
2018-08-25T10:37:24.971Z,24.20
2018-08-25T10:39:53.386Z,23.50
2018-08-25T10:42:22.044Z,22.80
2018-08-25T10:44:51.056Z,21.10
2018-08-25T10:47:19.537Z,20.70
2018-08-25T10:49:47.989Z,20.10
2018-08-25T10:52:16.628Z,19.20
2018-08-25T10:54:45.063Z,18.20
2018-08-25T10:57:13.782Z,17.80
2018-08-25T10:59:42.350Z,17.70
2018-08-25T11:02:25.925Z,17.90
2018-08-25T11:04:55.022Z,18.20
2018-08-25T11:07:24.283Z,18.10
2018-08-25T11:09:53.821Z,18.10
2018-08-25T11:12:22.577Z,17.90
2018-08-25T11:14:51.767Z,17.90
2018-08-25T11:17:20.300Z,17.60
2018-08-25T11:19:49.013Z,17.20
2018-08-25T11:22:17.529Z,16.80
2018-08-25T11:24:46.554Z,16.40
2018-08-25T11:27:15.137Z,16.10
2018-08-25T11:29:43.597Z,15.80
2018-08-25T11:32:12.126Z,15.80
2018-08-25T11:34:41.068Z,15.70
2018-08-25T11:37:09.699Z,15.60
2018-08-25T11:39:38.876Z,15.60
2018-08-25T11:42:07.907Z,15.80
2018-08-25T11:44:36.461Z,15.90
2018-08-25T11:47:09.541Z,15.80
2018-08-25T11:49:38.113Z,15.60
2018-08-25T11:52:06.925Z,15.70
2018-08-25T11:54:35.577Z,15.80
2018-08-25T11:57:04.076Z,15.70
2018-08-25T11:59:32.561Z,16.00
2018-08-25T12:02:01.704Z,16.30
2018-08-25T12:04:31.040Z,17.40
2018-08-25T12:06:59.511Z,18.60
2018-08-25T12:09:28.651Z,18.60
2018-08-25T12:11:57.937Z,18.40
2018-08-25T12:14:27.024Z,19.00
2018-08-25T12:16:56.124Z,19.60
2018-08-25T12:19:24.553Z,20.50
2018-08-25T12:21:54.586Z,21.30
2018-08-25T12:24:23.768Z,21.80
2018-08-25T12:26:54.112Z,21.40
2018-08-25T12:29:22.625Z,20.80
2018-08-25T12:31:51.612Z,20.40
2018-08-25T12:34:20.047Z,19.70
2018-08-25T12:36:48.590Z,19.10
2018-08-25T12:39:17.324Z,18.30
2018-08-25T12:41:45.853Z,18.10
2018-08-25T12:44:14.445Z,17.70
2018-08-25T12:46:43.020Z,17.70
2018-08-25T12:49:11.693Z,17.80
2018-08-25T12:51:40.233Z,18.00
2018-08-25T12:54:08.631Z,18.30
2018-08-25T12:56:37.254Z,18.60
2018-08-25T12:59:05.912Z,18.70
2018-08-25T13:01:34.945Z,18.70
2018-08-25T13:04:03.348Z,18.60
2018-08-25T13:06:32.594Z,18.40
2018-08-25T13:09:01.308Z,18.20
2018-08-25T13:11:29.813Z,18.00
2018-08-25T13:13:58.333Z,18.30
2018-08-25T13:16:26.940Z,18.70
2018-08-25T13:18:56.097Z,18.90
2018-08-25T13:21:25.400Z,19.10
2018-08-25T13:23:54.025Z,18.90
2018-08-25T13:26:23.308Z,18.70
2018-08-25T13:28:51.810Z,18.50
2018-08-25T13:31:20.954Z,18.40
2018-08-25T13:33:49.467Z,18.50
2018-08-25T13:36:17.921Z,18.80
2018-08-25T13:38:46.445Z,18.80
2018-08-25T13:41:15.605Z,18.60
2018-08-25T13:43:44.258Z,18.60
2018-08-25T13:46:13.650Z,18.40
2018-08-25T13:48:42.420Z,18.30
2018-08-25T13:51:11.021Z,18.40
2018-08-25T13:53:39.501Z,18.60
2018-08-25T13:56:07.941Z,18.60
2018-08-25T13:58:36.440Z,18.60
2018-08-25T14:01:05.762Z,18.70
2018-08-25T14:03:34.317Z,19.00
2018-08-25T14:06:02.963Z,19.30
2018-08-25T14:08:31.855Z,19.40
2018-08-25T14:11:00.413Z,19.20
2018-08-25T14:13:28.892Z,18.90
2018-08-25T14:15:57.615Z,18.80
2018-08-25T14:18:26.025Z,18.80
2018-08-25T14:20:54.528Z,19.00
2018-08-25T14:23:24.407Z,19.70
2018-08-25T14:25:52.817Z,20.40
2018-08-25T14:28:21.366Z,20.80
2018-08-25T14:30:49.789Z,21.20
2018-08-25T14:33:18.717Z,21.50
2018-08-25T14:35:48.560Z,21.00
2018-08-25T14:38:17.399Z,20.70
2018-08-25T14:40:46.910Z,20.70
2018-08-25T14:43:16.263Z,20.80
2018-08-25T14:45:45.888Z,20.90
2018-08-25T14:48:15.713Z,20.90
2018-08-25T14:50:44.573Z,20.80
2018-08-25T14:53:14.238Z,21.10
2018-08-25T14:55:44.193Z,21.80
2018-08-25T14:58:13.417Z,21.90
2018-08-25T15:00:42.425Z,21.60
2018-08-25T15:03:12.148Z,21.10
2018-08-25T15:05:40.545Z,20.60
2018-08-25T15:08:09.060Z,20.30
2018-08-25T15:10:37.706Z,20.10
2018-08-25T15:13:06.437Z,19.90
2018-08-25T15:15:35.149Z,19.50
2018-08-25T15:18:03.676Z,19.50
2018-08-25T15:20:32.234Z,19.30
2018-08-25T15:23:00.717Z,19.10
2018-08-25T15:25:29.906Z,19.00
2018-08-25T15:27:58.459Z,18.80
2018-08-25T15:30:27.009Z,18.40
2018-08-25T15:32:55.436Z,18.00
2018-08-25T15:35:24.122Z,18.00
2018-08-25T15:37:52.793Z,18.10
2018-08-25T15:40:21.413Z,18.10
2018-08-25T15:42:50.632Z,18.20
2018-08-25T15:45:19.041Z,18.20
2018-08-25T15:47:47.441Z,18.40
2018-08-25T15:50:15.921Z,18.40
2018-08-25T15:52:44.988Z,18.40
2018-08-25T15:55:13.393Z,18.40
2018-08-25T15:57:42.104Z,18.10
2018-08-25T16:00:10.797Z,18.10
2018-08-25T16:02:39.975Z,18.00
2018-08-25T16:05:08.649Z,18.10
2018-08-25T16:07:37.897Z,18.30
2018-08-25T16:10:06.917Z,18.50
2018-08-25T16:12:35.594Z,18.40
2018-08-25T16:15:04.361Z,18.30
2018-08-25T16:17:33.168Z,18.10
2018-08-25T16:20:01.895Z,17.90
2018-08-25T16:22:30.200Z,18.00
2018-08-25T16:24:58.749Z,18.10
2018-08-25T16:27:27.533Z,18.10
2018-08-25T16:29:56.773Z,18.00
2018-08-25T16:32:26.354Z,18.10
2018-08-25T16:34:54.809Z,17.80
2018-08-25T16:37:23.339Z,17.60
2018-08-25T16:39:51.813Z,17.80
2018-08-25T16:42:20.518Z,18.00
2018-08-25T16:44:49.432Z,17.80
2018-08-25T16:47:18.162Z,18.00
2018-08-25T16:49:46.586Z,17.80
2018-08-25T16:52:15.210Z,17.70
2018-08-25T16:54:43.708Z,17.70
2018-08-25T16:57:12.215Z,17.50
2018-08-25T16:59:41.421Z,17.40
2018-08-25T17:02:09.934Z,17.40
2018-08-25T17:04:38.417Z,17.20
2018-08-25T17:07:06.985Z,17.30
2018-08-25T17:09:36.270Z,17.20
2018-08-25T17:12:05.103Z,17.10
2018-08-25T17:14:33.977Z,17.20
2018-08-25T17:17:02.540Z,17.10
2018-08-25T17:19:31.680Z,17.20
2018-08-25T17:22:00.259Z,17.10
2018-08-25T17:24:28.917Z,17.20
2018-08-25T17:26:57.753Z,17.10
2018-08-25T17:29:26.848Z,17.20
2018-08-25T17:31:55.590Z,17.10
2018-08-25T17:34:24.122Z,17.10
2018-08-25T17:36:52.637Z,17.10
2018-08-25T17:39:21.354Z,17.00
2018-08-25T17:41:49.884Z,17.00
2018-08-25T17:44:18.611Z,16.90
2018-08-25T17:46:47.218Z,17.00
2018-08-25T17:49:15.958Z,17.00
2018-08-25T17:51:44.756Z,17.00
2018-08-25T17:54:13.659Z,17.10
2018-08-25T17:56:42.380Z,17.10
2018-08-25T17:59:10.956Z,17.00
2018-08-25T18:01:40.514Z,16.80
2018-08-25T18:04:09.027Z,16.70
2018-08-25T18:06:38.198Z,16.70
2018-08-25T18:09:07.212Z,16.70
2018-08-25T18:11:35.808Z,16.50
2018-08-25T18:14:04.589Z,16.60
2018-08-25T18:16:33.070Z,16.50
2018-08-25T18:19:01.730Z,16.40
2018-08-25T18:21:30.353Z,16.30
2018-08-25T18:23:59.356Z,16.20
2018-08-25T18:26:28.685Z,16.20
2018-08-25T18:29:00.205Z,16.20
2018-08-25T18:31:28.861Z,16.20
2018-08-25T18:33:57.496Z,16.20
2018-08-25T18:36:26.065Z,16.10
2018-08-25T18:38:55.273Z,16.10
2018-08-25T18:41:24.758Z,16.00
2018-08-25T18:43:53.208Z,15.90
2018-08-25T18:46:22.555Z,15.90
2018-08-25T18:48:51.518Z,15.80
2018-08-25T18:51:20.875Z,15.90
2018-08-25T18:53:49.909Z,15.90
2018-08-25T18:56:19.137Z,15.90
2018-08-25T18:58:47.960Z,15.90
2018-08-25T19:01:16.471Z,15.80
2018-08-25T19:03:45.146Z,15.70
2018-08-25T19:06:13.857Z,15.70
2018-08-25T19:08:42.334Z,15.70
2018-08-25T19:11:10.913Z,15.60
2018-08-25T19:13:40.010Z,15.50
2018-08-25T19:16:08.849Z,15.50
2018-08-25T19:18:37.376Z,15.30
2018-08-25T19:21:06.559Z,15.30
2018-08-25T19:23:35.090Z,15.30
2018-08-25T19:26:03.708Z,15.30
2018-08-25T19:28:32.225Z,15.20
2018-08-25T19:31:00.847Z,15.30
2018-08-25T19:33:30.110Z,15.10
2018-08-25T19:35:58.559Z,15.10
2018-08-25T19:38:27.773Z,15.20
2018-08-25T19:40:56.230Z,15.20
2018-08-25T19:43:24.853Z,15.10
2018-08-25T19:45:53.330Z,15.00
2018-08-25T19:48:21.985Z,15.00
2018-08-25T19:50:50.507Z,15.00
2018-08-25T19:53:19.900Z,15.00
2018-08-25T19:55:48.625Z,15.00
2018-08-25T19:58:17.307Z,15.00
2018-08-25T20:00:45.991Z,14.90
2018-08-25T20:03:14.562Z,14.90
2018-08-25T20:05:44.008Z,14.90
2018-08-25T20:08:12.513Z,14.90
2018-08-25T20:10:41.260Z,15.00
2018-08-25T20:13:09.813Z,15.00
2018-08-25T20:15:38.402Z,15.00
2018-08-25T20:18:07.486Z,14.90
2018-08-25T20:20:36.013Z,14.90
2018-08-25T20:23:05.293Z,14.90
2018-08-25T20:25:33.937Z,14.90
2018-08-25T20:28:02.541Z,14.80
2018-08-25T20:30:31.281Z,14.90
2018-08-25T20:32:59.844Z,14.90
2018-08-25T20:35:28.732Z,15.00
2018-08-25T20:37:57.950Z,14.80
2018-08-25T20:40:26.534Z,14.60
2018-08-25T20:42:55.133Z,14.40
2018-08-25T20:45:23.826Z,14.60
2018-08-25T20:47:52.386Z,14.60
2018-08-25T20:50:21.452Z,14.60
2018-08-25T20:52:50.017Z,14.60
2018-08-25T20:55:18.603Z,14.60
2018-08-25T20:57:47.914Z,14.60
2018-08-25T21:00:16.366Z,14.60
2018-08-25T21:02:46.642Z,14.60
2018-08-25T21:05:16.245Z,14.60
2018-08-25T21:07:45.198Z,14.50
2018-08-25T21:10:13.778Z,14.50
2018-08-25T21:12:42.302Z,14.50
2018-08-25T21:15:10.737Z,14.50
2018-08-25T21:17:39.438Z,14.50
2018-08-25T21:20:08.094Z,14.50
2018-08-25T21:22:36.880Z,14.40
2018-08-25T21:25:06.155Z,14.40
2018-08-25T21:27:34.620Z,14.40
2018-08-25T21:30:03.160Z,14.40
2018-08-25T21:32:31.724Z,14.40
2018-08-25T21:35:00.252Z,14.40
2018-08-25T21:37:28.656Z,14.40
2018-08-25T21:39:57.132Z,14.40
2018-08-25T21:42:25.626Z,14.30
2018-08-25T21:44:54.506Z,14.20
2018-08-25T21:47:23.079Z,14.30
2018-08-25T21:49:51.628Z,14.20
2018-08-25T21:52:20.285Z,14.30
2018-08-25T21:54:49.520Z,14.30
2018-08-25T21:57:18.016Z,14.30
2018-08-25T21:59:46.609Z,14.10
2018-08-25T22:02:18.737Z,14.10
2018-08-25T22:04:48.625Z,14.10
2018-08-25T22:07:17.119Z,14.10
2018-08-25T22:09:46.798Z,14.10
2018-08-25T22:12:15.504Z,14.10
2018-08-25T22:14:44.042Z,14.20
2018-08-25T22:17:12.599Z,14.10
2018-08-25T22:19:41.074Z,14.10
2018-08-25T22:22:09.631Z,14.00
2018-08-25T22:24:38.382Z,14.00
2018-08-25T22:27:07.092Z,13.90
2018-08-25T22:29:35.906Z,13.90
2018-08-25T22:32:05.267Z,13.90
2018-08-25T22:34:34.031Z,13.80
2018-08-25T22:37:02.560Z,13.80
2018-08-25T22:39:31.134Z,13.70
2018-08-25T22:42:00.263Z,13.60
2018-08-25T22:44:28.785Z,13.60
2018-08-25T22:46:57.416Z,13.50
2018-08-25T22:49:25.944Z,13.60
2018-08-25T22:51:54.501Z,13.60
2018-08-25T22:54:23.974Z,13.70
2018-08-25T22:56:52.590Z,13.60
2018-08-25T22:59:21.080Z,13.60
2018-08-25T23:01:49.632Z,13.60
2018-08-25T23:04:18.227Z,13.60
2018-08-25T23:06:46.842Z,13.60
2018-08-25T23:09:15.518Z,13.60
2018-08-25T23:11:44.096Z,13.50
2018-08-25T23:14:12.789Z,13.60
2018-08-25T23:16:41.451Z,13.50
2018-08-25T23:19:10.538Z,13.40
2018-08-25T23:21:39.207Z,13.40
2018-08-25T23:24:07.809Z,13.50
2018-08-25T23:26:36.446Z,13.50
2018-08-25T23:29:05.504Z,13.50
2018-08-25T23:31:34.559Z,13.30
2018-08-25T23:34:03.240Z,13.30
2018-08-25T23:36:32.341Z,13.40
2018-08-25T23:39:02.198Z,13.50
2018-08-25T23:41:30.882Z,13.50
2018-08-25T23:43:59.531Z,13.40
2018-08-25T23:46:28.970Z,13.30
2018-08-25T23:48:57.549Z,13.40
2018-08-25T23:51:26.152Z,13.40
2018-08-25T23:53:54.770Z,13.40
2018-08-25T23:56:23.287Z,13.40
2018-08-25T23:58:51.975Z,13.40
